createdAt,value
2017-08-10T00:00:30.421Z,997.16
2017-08-10T00:01:40.159Z,997.16
2017-08-10T00:02:49.883Z,997.2
2017-08-10T00:03:59.919Z,997.25
2017-08-10T00:05:10.000Z,997.33
2017-08-10T00:06:20.053Z,997.33
2017-08-10T00:07:30.408Z,997.3
2017-08-10T00:08:40.774Z,997.33
2017-08-10T00:09:51.139Z,997.35
2017-08-10T00:11:01.601Z,997.33
2017-08-10T00:12:11.646Z,997.34
2017-08-10T00:13:21.990Z,997.32
2017-08-10T00:14:32.058Z,997.38
2017-08-10T00:15:42.400Z,997.43
2017-08-10T00:16:52.804Z,997.48
2017-08-10T00:18:04.960Z,997.54
2017-08-10T00:19:15.306Z,997.56
2017-08-10T00:20:25.364Z,997.61
2017-08-10T00:21:35.726Z,997.65
2017-08-10T00:22:46.139Z,997.66
2017-08-10T00:23:56.191Z,997.75
2017-08-10T00:25:06.547Z,997.83
2017-08-10T00:26:16.583Z,997.92
2017-08-10T00:27:26.936Z,997.96
2017-08-10T00:28:37.337Z,998.03
2017-08-10T00:29:49.602Z,998.11
2017-08-10T00:30:59.328Z,998.24
2017-08-10T00:32:09.377Z,998.4
2017-08-10T00:33:19.748Z,998.51
2017-08-10T00:34:29.835Z,998.44
2017-08-10T00:35:40.218Z,998.43
2017-08-10T00:36:50.562Z,998.51
2017-08-10T00:38:00.908Z,998.41
2017-08-10T00:39:11.256Z,998.48
2017-08-10T00:40:21.664Z,998.5
2017-08-10T00:41:31.709Z,998.45
2017-08-10T00:42:41.774Z,998.46
2017-08-10T00:43:51.820Z,998.39
2017-08-10T00:45:02.164Z,998.28
2017-08-10T00:46:12.253Z,998.12
2017-08-10T00:47:22.600Z,998.01
2017-08-10T00:48:32.945Z,997.96
2017-08-10T00:49:42.994Z,997.94
2017-08-10T00:50:53.350Z,997.96
2017-08-10T00:52:03.757Z,997.99
2017-08-10T00:53:14.105Z,998.11
2017-08-10T00:54:24.448Z,998.19
2017-08-10T00:55:34.796Z,998.27
2017-08-10T00:56:45.148Z,998.33
2017-08-10T00:57:55.562Z,998.3
2017-08-10T00:59:05.607Z,998.31
2017-08-10T01:00:15.656Z,998.28
2017-08-10T01:01:26.012Z,998.28
2017-08-10T01:02:36.062Z,998.26
2017-08-10T01:03:46.504Z,998.23
2017-08-10T01:04:56.228Z,998.19
2017-08-10T01:06:06.584Z,998.17
2017-08-10T01:07:16.931Z,998.16
2017-08-10T01:08:27.291Z,998.15
2017-08-10T01:09:37.389Z,998.13
2017-08-10T01:10:46.799Z,998.14
2017-08-10T01:11:57.147Z,998.16
2017-08-10T01:13:07.176Z,998.24
2017-08-10T01:14:17.528Z,998.26
2017-08-10T01:15:27.937Z,998.24
2017-08-10T01:16:37.971Z,998.29
2017-08-10T01:17:48.340Z,998.28
2017-08-10T01:18:58.381Z,998.31
2017-08-10T01:20:08.724Z,998.31
2017-08-10T01:21:18.509Z,998.28
2017-08-10T01:22:28.872Z,998.27
2017-08-10T01:23:38.911Z,998.22
2017-08-10T01:24:49.276Z,998.14
2017-08-10T01:25:59.627Z,998.08
2017-08-10T01:27:10.032Z,997.98
2017-08-10T01:28:20.388Z,997.99
2017-08-10T01:29:30.761Z,997.9
2017-08-10T01:30:40.805Z,997.84
2017-08-10T01:31:50.562Z,997.79
2017-08-10T01:33:00.955Z,997.73
2017-08-10T01:34:11.303Z,997.65
2017-08-10T01:35:21.666Z,997.62
2017-08-10T01:36:32.027Z,997.6
2017-08-10T01:37:42.371Z,997.58
2017-08-10T01:38:52.782Z,997.55
2017-08-10T01:40:03.132Z,997.52
2017-08-10T01:41:13.162Z,997.53
2017-08-10T01:42:23.528Z,997.49
2017-08-10T01:43:33.555Z,997.51
2017-08-10T01:44:45.492Z,997.44
2017-08-10T01:45:55.218Z,997.45
2017-08-10T01:47:05.251Z,997.39
2017-08-10T01:48:15.588Z,997.34
2017-08-10T01:49:25.941Z,997.3
2017-08-10T01:50:36.346Z,997.33
2017-08-10T01:51:46.726Z,997.28
2017-08-10T01:52:57.084Z,997.3
2017-08-10T01:54:07.439Z,997.3
2017-08-10T01:55:17.799Z,997.29
2017-08-10T01:56:27.890Z,997.22
2017-08-10T01:57:38.246Z,997.23
2017-08-10T01:58:48.597Z,997.21
2017-08-10T01:59:58.951Z,997.18
2017-08-10T02:01:09.016Z,997.15
2017-08-10T02:02:19.116Z,997.11
2017-08-10T02:03:30.606Z,997.09
2017-08-10T02:04:40.964Z,997.06
2017-08-10T02:05:51.317Z,997.03
2017-08-10T02:07:01.355Z,996.96
2017-08-10T02:08:11.446Z,996.94
2017-08-10T02:09:21.799Z,996.88
2017-08-10T02:10:32.161Z,996.91
2017-08-10T02:11:42.515Z,996.9
2017-08-10T02:12:52.859Z,996.87
2017-08-10T02:14:03.265Z,996.85
2017-08-10T02:15:13.301Z,996.7
2017-08-10T02:16:23.652Z,996.63
2017-08-10T02:17:33.995Z,996.5
2017-08-10T02:18:44.908Z,996.43
2017-08-10T02:19:55.300Z,996.4
2017-08-10T02:21:05.025Z,996.39
2017-08-10T02:22:15.070Z,996.39
2017-08-10T02:23:25.436Z,996.36
2017-08-10T02:24:35.772Z,996.31
2017-08-10T02:25:46.171Z,996.27
2017-08-10T02:26:56.531Z,996.22
2017-08-10T02:28:06.584Z,996.19
2017-08-10T02:29:16.945Z,996.13
2017-08-10T02:30:26.986Z,996.1
2017-08-10T02:31:37.393Z,996.05
2017-08-10T02:32:47.751Z,996.05
2017-08-10T02:33:58.120Z,996.07
2017-08-10T02:35:08.149Z,996.05
2017-08-10T02:36:18.504Z,996.13
2017-08-10T02:37:28.599Z,996.16
2017-08-10T02:38:38.946Z,996.13
2017-08-10T02:39:48.985Z,996.14
2017-08-10T02:40:59.225Z,996.14
2017-08-10T02:42:09.579Z,996.15
2017-08-10T02:43:19.679Z,996.15
2017-08-10T02:44:29.732Z,996.12
2017-08-10T02:45:39.767Z,996.13
2017-08-10T02:46:49.799Z,996.16
2017-08-10T02:48:00.153Z,996.16
2017-08-10T02:49:10.547Z,996.13
2017-08-10T02:50:20.896Z,996.12
2017-08-10T02:51:31.244Z,996.15
2017-08-10T02:52:41.290Z,996.15
2017-08-10T02:53:51.340Z,996.18
2017-08-10T02:55:01.753Z,996.13
2017-08-10T02:56:12.109Z,996.15
2017-08-10T02:57:22.152Z,996.11
2017-08-10T02:58:32.499Z,996.09
2017-08-10T02:59:42.550Z,996.15
2017-08-10T03:00:52.628Z,996.22
2017-08-10T03:33:20.649Z,996.06
2017-08-10T03:34:30.682Z,996.11
2017-08-10T03:35:41.028Z,996.12
2017-08-10T03:36:51.364Z,996.05
2017-08-10T03:38:01.722Z,996.04
2017-08-10T03:39:12.128Z,996.05
2017-08-10T03:40:22.485Z,996.07
2017-08-10T03:41:32.510Z,996.13
2017-08-10T03:42:43.638Z,996.16
2017-08-10T03:43:53.979Z,996.22
2017-08-10T03:45:04.060Z,996.2
2017-08-10T03:46:14.114Z,996.21
2017-08-10T03:47:24.471Z,996.24
2017-08-10T03:48:34.824Z,996.22
2017-08-10T03:49:45.169Z,996.28
2017-08-10T03:50:55.253Z,996.32
2017-08-10T03:52:05.622Z,996.29
2017-08-10T03:53:15.991Z,996.34
2017-08-10T03:54:26.015Z,996.35
2017-08-10T03:55:36.369Z,996.43
2017-08-10T03:56:46.788Z,996.47
2017-08-10T03:57:57.141Z,996.49
2017-08-10T03:59:07.508Z,996.53
2017-08-10T04:00:17.861Z,996.44
2017-08-10T04:01:28.212Z,996.41
2017-08-10T04:02:38.633Z,996.4
2017-08-10T04:03:49.228Z,996.44
2017-08-10T04:04:59.602Z,996.44
2017-08-10T04:06:10.008Z,996.45
2017-08-10T04:07:20.356Z,996.48
2017-08-10T04:08:30.444Z,996.51
2017-08-10T04:09:40.474Z,996.53
2017-08-10T04:10:50.821Z,996.52
2017-08-10T04:12:01.165Z,996.54
2017-08-10T04:13:11.515Z,996.52
2017-08-10T04:14:21.603Z,996.55
2017-08-10T04:15:31.937Z,996.54
2017-08-10T04:16:42.285Z,996.55
2017-08-10T04:17:52.647Z,996.53
2017-08-10T04:19:03.001Z,996.52
2017-08-10T04:20:13.411Z,996.57
2017-08-10T04:21:23.447Z,996.6
2017-08-10T04:22:33.809Z,996.6
2017-08-10T04:23:43.851Z,996.65
2017-08-10T04:24:54.213Z,996.65
2017-08-10T04:26:04.619Z,996.66
2017-08-10T04:27:14.970Z,996.7
2017-08-10T04:28:25.324Z,996.68
2017-08-10T04:29:35.684Z,996.67
2017-08-10T04:30:45.731Z,996.66
2017-08-10T04:31:56.139Z,996.68
2017-08-10T04:33:06.213Z,996.68
2017-08-10T04:34:16.582Z,996.66
2017-08-10T04:35:26.942Z,996.67
2017-08-10T04:36:37.290Z,996.65
2017-08-10T04:37:47.677Z,996.65
2017-08-10T04:38:57.704Z,996.63
2017-08-10T04:40:08.061Z,996.58
2017-08-10T04:41:18.431Z,996.55
2017-08-10T04:42:28.790Z,996.54
2017-08-10T04:43:39.202Z,996.57
2017-08-10T04:44:49.567Z,996.57
2017-08-10T04:45:59.919Z,996.54
2017-08-10T04:47:09.949Z,996.54
2017-08-10T04:48:20.304Z,996.48
2017-08-10T04:49:30.708Z,996.47
2017-08-10T04:50:40.754Z,996.49
2017-08-10T04:51:51.104Z,996.49
2017-08-10T04:53:01.467Z,996.49
2017-08-10T04:54:11.820Z,996.6
2017-08-10T04:55:21.920Z,996.65
2017-08-10T04:56:31.968Z,996.62
2017-08-10T04:57:42.009Z,996.64
2017-08-10T04:58:52.366Z,996.66
2017-08-10T05:00:02.710Z,996.66
2017-08-10T05:01:13.106Z,996.66
2017-08-10T05:02:23.461Z,996.68
2017-08-10T05:03:33.816Z,996.64
2017-08-10T05:04:43.857Z,996.6
2017-08-10T05:05:54.252Z,996.58
2017-08-10T05:07:04.341Z,996.55
2017-08-10T05:08:14.688Z,996.6
2017-08-10T05:09:24.721Z,996.6
2017-08-10T05:10:35.058Z,996.61
2017-08-10T05:11:45.416Z,996.63
2017-08-10T05:12:55.815Z,996.63
2017-08-10T05:14:05.861Z,996.61
2017-08-10T05:15:15.617Z,996.58
2017-08-10T05:16:25.965Z,996.59
2017-08-10T05:17:35.999Z,996.59
2017-08-10T05:18:46.389Z,996.56
2017-08-10T05:19:56.127Z,996.56
2017-08-10T05:21:06.165Z,996.53
2017-08-10T05:22:16.528Z,996.51
2017-08-10T05:23:26.557Z,996.55
2017-08-10T05:24:36.674Z,996.52
2017-08-10T05:25:46.701Z,996.54
2017-08-10T05:26:56.766Z,996.57
2017-08-10T05:28:07.137Z,996.62
2017-08-10T05:29:17.193Z,996.59
2017-08-10T05:30:27.588Z,996.62
2017-08-10T05:31:37.949Z,996.73
2017-08-10T05:32:48.006Z,996.81
2017-08-10T05:33:58.354Z,996.75
2017-08-10T05:35:08.714Z,996.7
2017-08-10T05:36:18.817Z,996.73
2017-08-10T05:37:29.166Z,996.78
2017-08-10T05:38:39.215Z,996.75
2017-08-10T05:39:49.547Z,996.69
2017-08-10T05:40:59.603Z,996.69
2017-08-10T05:42:10.015Z,996.72
2017-08-10T05:43:20.062Z,996.71
2017-08-10T05:44:30.427Z,996.64
2017-08-10T05:45:40.472Z,996.64
2017-08-10T05:46:50.520Z,996.63
2017-08-10T05:48:00.632Z,996.66
2017-08-10T05:49:10.990Z,996.74
2017-08-10T05:50:21.360Z,996.84
2017-08-10T05:51:31.737Z,996.93
2017-08-10T05:52:42.111Z,997.01
2017-08-10T05:53:52.222Z,996.97
2017-08-10T05:55:02.589Z,997.02
2017-08-10T05:56:12.939Z,997.05
2017-08-10T05:57:23.329Z,997.08
2017-08-10T05:58:33.674Z,997.22
2017-08-10T05:59:43.760Z,997.31
2017-08-10T06:00:53.815Z,997.32
2017-08-10T06:02:04.169Z,997.29
2017-08-10T06:03:14.231Z,997.19
2017-08-10T06:04:24.273Z,997.18
2017-08-10T06:05:34.701Z,997.18
2017-08-10T06:06:44.847Z,997.16
2017-08-10T06:07:55.253Z,997.15
2017-08-10T06:09:05.651Z,997.12
2017-08-10T06:10:16.003Z,997.1
2017-08-10T06:11:26.429Z,997.11
2017-08-10T06:12:36.805Z,997.13
2017-08-10T06:13:47.164Z,997.04
2017-08-10T06:14:57.525Z,997.09
2017-08-10T06:16:07.891Z,997.12
2017-08-10T06:17:17.990Z,997.08
2017-08-10T06:18:28.335Z,997.11
2017-08-10T06:19:38.387Z,997.08
2017-08-10T06:20:48.741Z,997.02
2017-08-10T06:21:58.781Z,996.98
2017-08-10T06:23:08.882Z,996.97
2017-08-10T06:24:18.928Z,996.99
2017-08-10T06:25:29.306Z,996.98
2017-08-10T06:26:39.359Z,996.98
2017-08-10T06:27:49.394Z,997.01
2017-08-10T06:28:59.802Z,997.06
2017-08-10T06:30:10.154Z,997.07
2017-08-10T06:31:19.890Z,997.09
2017-08-10T06:32:29.311Z,997.1
2017-08-10T06:33:39.038Z,997.05
2017-08-10T06:34:49.439Z,997.12
2017-08-10T06:35:59.810Z,997.17
2017-08-10T06:37:10.168Z,997.22
2017-08-10T06:38:20.525Z,997.27
2017-08-10T06:39:30.557Z,997.21
2017-08-10T06:40:40.658Z,997.19
2017-08-10T06:41:51.022Z,997.17
2017-08-10T06:43:01.066Z,997.15
2017-08-10T06:44:10.790Z,997.15
2017-08-10T06:45:20.526Z,997.19
2017-08-10T06:46:30.948Z,997.2
2017-08-10T06:47:40.997Z,997.23
2017-08-10T06:48:51.062Z,997.23
2017-08-10T06:50:01.424Z,997.15
2017-08-10T06:51:11.789Z,997.11
2017-08-10T06:52:21.576Z,997.08
2017-08-10T06:53:31.940Z,997.06
2017-08-10T06:54:42.289Z,997.13
2017-08-10T06:55:52.330Z,997.23
2017-08-10T06:57:02.687Z,997.28
2017-08-10T06:58:13.110Z,997.32
2017-08-10T06:59:23.486Z,997.28
2017-08-10T07:00:33.850Z,997.23
2017-08-10T07:01:43.918Z,997.17
2017-08-10T07:02:54.281Z,997.09
2017-08-10T07:04:04.704Z,997.08
2017-08-10T07:05:14.426Z,997.01
2017-08-10T07:06:24.800Z,997
2017-08-10T07:07:35.157Z,997.01
2017-08-10T07:08:45.225Z,997.03
2017-08-10T07:09:55.636Z,997.01
2017-08-10T07:11:06.057Z,996.99
2017-08-10T07:12:16.425Z,996.99
2017-08-10T07:13:26.777Z,997.01
2017-08-10T07:14:37.137Z,997.02
2017-08-10T07:15:47.241Z,997.1
2017-08-10T07:16:57.602Z,997.05
2017-08-10T07:18:07.970Z,997
2017-08-10T07:19:18.316Z,996.96
2017-08-10T07:20:28.675Z,996.97
2017-08-10T07:21:39.085Z,996.98
2017-08-10T07:22:49.438Z,996.98
2017-08-10T07:23:59.830Z,996.94
2017-08-10T07:25:10.189Z,996.91
2017-08-10T07:26:20.542Z,996.77
2017-08-10T07:27:30.960Z,996.72
2017-08-10T07:28:41.012Z,996.64
2017-08-10T07:29:51.356Z,996.59
2017-08-10T07:31:01.707Z,996.54
2017-08-10T07:32:12.060Z,996.53
2017-08-10T07:33:22.454Z,996.59
2017-08-10T07:34:32.825Z,996.62
2017-08-10T07:35:43.178Z,996.76
2017-08-10T07:36:53.528Z,996.8
2017-08-10T07:38:03.572Z,996.83
2017-08-10T07:39:13.972Z,996.8
2017-08-10T07:40:25.322Z,996.79
2017-08-10T07:41:35.694Z,996.76
2017-08-10T07:42:46.057Z,996.81
2017-08-10T07:43:56.125Z,996.85
2017-08-10T07:45:06.522Z,996.83
2017-08-10T07:46:16.883Z,996.83
2017-08-10T07:47:27.255Z,996.97
2017-08-10T07:48:37.622Z,997.06
2017-08-10T07:49:47.973Z,997.12
2017-08-10T07:50:58.388Z,997.16
2017-08-10T07:52:08.761Z,997.13
2017-08-10T07:53:19.112Z,997.14
2017-08-10T07:54:29.164Z,997.14
2017-08-10T07:55:39.539Z,997.03
2017-08-10T07:56:49.955Z,996.99
2017-08-10T07:58:00.252Z,996.93
2017-08-10T07:59:10.297Z,996.87
2017-08-10T08:00:20.348Z,996.82
2017-08-10T08:01:30.715Z,996.88
2017-08-10T08:02:41.068Z,996.92
2017-08-10T08:03:51.099Z,996.94
2017-08-10T08:05:01.166Z,996.91
2017-08-10T08:06:11.568Z,997.01
2017-08-10T08:07:21.925Z,997
2017-08-10T08:08:31.975Z,996.96
2017-08-10T08:09:42.328Z,996.94
2017-08-10T08:10:52.714Z,996.98
2017-08-10T08:12:03.123Z,997
2017-08-10T08:13:13.508Z,997.04
2017-08-10T08:14:23.874Z,997.01
2017-08-10T08:15:34.226Z,997
2017-08-10T08:16:44.580Z,997.05
2017-08-10T08:17:54.927Z,997.13
2017-08-10T08:19:06.045Z,997.22
2017-08-10T08:20:16.414Z,997.32
2017-08-10T08:21:26.551Z,997.41
2017-08-10T08:22:36.911Z,997.47
2017-08-10T08:23:47.322Z,997.55
2017-08-10T08:24:57.363Z,997.52
2017-08-10T08:26:07.094Z,997.53
2017-08-10T08:27:16.826Z,997.64
2017-08-10T08:28:27.183Z,997.69
2017-08-10T08:29:37.275Z,997.77
2017-08-10T08:30:47.616Z,997.78
2017-08-10T08:31:57.666Z,997.85
2017-08-10T08:33:08.031Z,997.9
2017-08-10T08:34:18.372Z,997.9
2017-08-10T08:35:28.787Z,997.99
2017-08-10T08:36:38.509Z,998.05
2017-08-10T08:37:48.257Z,998.13
2017-08-10T08:38:58.608Z,998.19
2017-08-10T08:40:08.958Z,998.27
2017-08-10T08:41:19.369Z,998.37
2017-08-10T08:42:31.202Z,998.47
2017-08-10T08:43:41.550Z,998.6
2017-08-10T08:44:51.590Z,998.62
2017-08-10T08:46:01.949Z,998.72
2017-08-10T08:47:12.361Z,998.75
2017-08-10T08:48:22.736Z,998.78
2017-08-10T08:49:32.818Z,998.81
2017-08-10T08:50:43.185Z,998.89
2017-08-10T08:51:53.548Z,998.92
2017-08-10T08:53:03.654Z,998.88
2017-08-10T08:54:14.027Z,998.91
2017-08-10T08:55:24.403Z,998.9
2017-08-10T08:56:34.755Z,998.88
2017-08-10T08:57:44.793Z,998.87
2017-08-10T08:58:55.204Z,998.76
2017-08-10T09:00:05.260Z,998.58
2017-08-10T09:01:15.632Z,998.57
2017-08-10T09:02:26.349Z,998.45
2017-08-10T09:03:36.381Z,998.47
2017-08-10T09:04:46.804Z,998.48
2017-08-10T09:05:57.170Z,998.52
2017-08-10T09:07:07.534Z,998.53
2017-08-10T09:08:17.576Z,998.53
2017-08-10T09:09:27.916Z,998.5
2017-08-10T09:10:38.331Z,998.39
2017-08-10T09:11:48.374Z,998.28
2017-08-10T09:12:58.745Z,998.23
2017-08-10T09:14:08.816Z,998.33
2017-08-10T09:15:19.186Z,998.39
2017-08-10T09:16:29.280Z,998.54
2017-08-10T09:17:39.647Z,998.65
2017-08-10T09:18:52.074Z,998.7
2017-08-10T09:20:02.444Z,998.58
2017-08-10T09:21:12.816Z,998.56
2017-08-10T09:22:23.224Z,998.44
2017-08-10T09:23:33.255Z,998.44
2017-08-10T09:24:43.310Z,998.51
2017-08-10T09:25:53.678Z,998.48
2017-08-10T09:27:04.055Z,998.43
2017-08-10T09:28:14.462Z,998.4
2017-08-10T09:29:24.833Z,998.44
2017-08-10T09:30:35.183Z,998.43
2017-08-10T09:31:45.551Z,998.57
2017-08-10T09:32:55.901Z,998.59
2017-08-10T09:34:06.301Z,998.7
2017-08-10T09:35:16.036Z,998.68
2017-08-10T09:36:25.761Z,998.63
2017-08-10T09:37:36.113Z,998.61
2017-08-10T09:38:46.393Z,998.61
2017-08-10T09:39:56.486Z,998.62
2017-08-10T09:41:06.850Z,998.56
2017-08-10T09:42:17.208Z,998.49
2017-08-10T09:43:27.557Z,998.45
2017-08-10T09:44:37.601Z,998.38
2017-08-10T09:45:47.998Z,998.41
2017-08-10T09:46:57.725Z,998.33
2017-08-10T09:48:08.076Z,998.28
2017-08-10T09:49:18.451Z,998.32
2017-08-10T09:50:28.803Z,998.22
2017-08-10T09:51:38.893Z,998.12
2017-08-10T09:52:49.265Z,997.93
2017-08-10T09:53:59.316Z,997.74
2017-08-10T09:55:09.373Z,997.62
2017-08-10T09:56:19.434Z,997.53
2017-08-10T09:57:29.544Z,997.54
2017-08-10T09:58:39.891Z,997.64
2017-08-10T09:59:50.234Z,997.83
2017-08-10T10:01:00.585Z,997.93
2017-08-10T10:02:10.942Z,998.02
2017-08-10T10:03:21.339Z,998.06
2017-08-10T10:04:31.391Z,998.03
2017-08-10T10:05:41.743Z,998.01
2017-08-10T10:06:51.796Z,998
2017-08-10T10:08:02.151Z,998.03
2017-08-10T10:09:12.583Z,998.04
2017-08-10T10:10:22.625Z,998.13
2017-08-10T10:11:32.998Z,998.13
2017-08-10T10:12:43.368Z,998.1
2017-08-10T10:13:53.741Z,998.16
2017-08-10T10:15:03.838Z,998.15
2017-08-10T10:16:13.914Z,998.2
2017-08-10T10:17:23.951Z,998.23
2017-08-10T10:18:34.309Z,998.23
2017-08-10T10:19:44.654Z,998.22
2017-08-10T10:20:55.056Z,998.2
2017-08-10T10:22:05.519Z,998.19
2017-08-10T10:23:16.087Z,998.21
2017-08-10T10:24:28.344Z,998.23
2017-08-10T10:25:38.717Z,998.25
2017-08-10T10:26:49.135Z,998.3
2017-08-10T10:27:59.478Z,998.31
2017-08-10T10:29:09.864Z,998.28
2017-08-10T10:30:19.930Z,998.26
2017-08-10T10:31:30.301Z,998.3
2017-08-10T10:32:40.730Z,998.29
2017-08-10T10:33:50.809Z,998.27
2017-08-10T10:35:00.882Z,998.26
2017-08-10T10:36:12.890Z,998.29
2017-08-10T10:37:22.960Z,998.21
2017-08-10T10:38:33.380Z,998.26
2017-08-10T10:39:43.760Z,998.21
2017-08-10T10:40:54.129Z,998.17
2017-08-10T10:42:04.506Z,998.2
2017-08-10T10:43:14.869Z,998.22
2017-08-10T10:44:25.269Z,998.09
2017-08-10T10:45:35.648Z,998.09
2017-08-10T10:46:45.703Z,998.06
2017-08-10T10:47:56.058Z,997.93
2017-08-10T10:49:05.808Z,997.88
2017-08-10T10:50:16.233Z,997.81
2017-08-10T10:51:26.292Z,997.75
2017-08-10T10:52:36.360Z,997.76
2017-08-10T10:53:46.723Z,997.78
2017-08-10T10:54:57.089Z,997.83
2017-08-10T10:56:07.196Z,997.87
2017-08-10T10:57:17.257Z,997.81
2017-08-10T10:58:27.633Z,997.82
2017-08-10T10:59:37.371Z,997.78
2017-08-10T11:00:47.407Z,997.73
2017-08-10T11:01:58.249Z,997.73
2017-08-10T11:03:08.298Z,997.67
2017-08-10T11:04:18.664Z,997.58
2017-08-10T11:05:28.714Z,997.52
2017-08-10T11:06:38.752Z,997.48
2017-08-10T11:07:48.857Z,997.44
2017-08-10T11:08:58.901Z,997.44
2017-08-10T11:10:09.266Z,997.42
2017-08-10T11:11:19.327Z,997.41
2017-08-10T11:12:29.681Z,997.45
2017-08-10T11:13:40.085Z,997.47
2017-08-10T11:14:50.442Z,997.34
2017-08-10T11:16:00.807Z,997.32
2017-08-10T11:17:10.858Z,997.23
2017-08-10T11:18:21.225Z,997.24
2017-08-10T11:19:31.623Z,997.27
2017-08-10T11:20:41.652Z,997.32
2017-08-10T11:21:51.693Z,997.37
2017-08-10T11:23:01.764Z,997.33
2017-08-10T11:24:11.516Z,997.31
2017-08-10T11:25:21.950Z,997.23
2017-08-10T11:26:32.318Z,997.09
2017-08-10T11:27:42.359Z,997.02
2017-08-10T11:28:52.733Z,996.88
2017-08-10T11:30:03.094Z,996.76
2017-08-10T11:31:13.502Z,996.73
2017-08-10T11:32:23.849Z,996.79
2017-08-10T11:33:33.903Z,996.86
2017-08-10T11:34:44.760Z,996.81
2017-08-10T11:35:54.813Z,996.66
2017-08-10T11:37:05.226Z,996.46
2017-08-10T11:38:15.634Z,996.32
2017-08-10T11:39:26.235Z,996.29
2017-08-10T11:40:36.594Z,996.37
2017-08-10T11:41:46.934Z,996.44
2017-08-10T11:42:57.335Z,996.54
2017-08-10T11:44:07.682Z,996.56
2017-08-10T11:45:18.043Z,996.55
2017-08-10T11:46:28.383Z,996.57
2017-08-10T11:47:38.749Z,996.56
2017-08-10T11:48:48.854Z,996.53
2017-08-10T11:49:59.212Z,996.52
2017-08-10T11:51:10.973Z,996.5
2017-08-10T11:52:21.026Z,996.43
2017-08-10T11:53:31.392Z,996.41
2017-08-10T11:54:41.804Z,996.35
2017-08-10T11:55:51.866Z,996.31
2017-08-10T11:57:02.226Z,996.28
2017-08-10T11:58:12.588Z,996.27
2017-08-10T11:59:22.626Z,996.22
2017-08-10T12:00:33.044Z,996.17
2017-08-10T12:01:43.403Z,996.14
2017-08-10T12:02:53.764Z,996.11
2017-08-10T12:04:04.132Z,996.01
2017-08-10T12:05:14.192Z,996.03
2017-08-10T12:06:24.305Z,995.97
2017-08-10T12:07:34.681Z,995.99
2017-08-10T12:08:44.717Z,995.95
2017-08-10T12:09:55.091Z,995.94
2017-08-10T12:11:05.446Z,995.9
2017-08-10T12:12:15.215Z,995.89
2017-08-10T12:13:25.587Z,995.87
2017-08-10T12:14:35.944Z,995.86
2017-08-10T12:15:46.317Z,995.82
2017-08-10T12:16:56.682Z,995.79
2017-08-10T12:18:07.190Z,995.69
2017-08-10T12:19:17.553Z,995.64
2017-08-10T12:20:27.906Z,995.59
2017-08-10T12:21:38.272Z,995.53
2017-08-10T12:22:48.312Z,995.5
2017-08-10T12:23:58.759Z,995.5
2017-08-10T12:25:09.130Z,995.48
2017-08-10T12:26:19.493Z,995.5
2017-08-10T12:27:29.859Z,995.53
2017-08-10T12:28:39.920Z,995.56
2017-08-10T12:29:50.348Z,995.6
2017-08-10T12:31:00.710Z,995.64
2017-08-10T12:32:11.080Z,995.7
2017-08-10T12:33:21.437Z,995.69
2017-08-10T12:34:31.778Z,995.76
2017-08-10T12:35:41.876Z,995.74
2017-08-10T12:36:51.933Z,995.76
2017-08-10T12:38:02.012Z,995.79
2017-08-10T12:39:12.360Z,995.82
2017-08-10T12:40:22.417Z,995.83
2017-08-10T12:41:32.857Z,995.79
2017-08-10T12:42:43.202Z,995.8
2017-08-10T12:43:53.573Z,995.79
2017-08-10T12:45:04.271Z,995.76
2017-08-10T12:46:14.627Z,995.87
2017-08-10T12:47:25.080Z,995.84
2017-08-10T12:48:35.121Z,995.79
2017-08-10T12:49:45.462Z,995.84
2017-08-10T12:50:55.826Z,995.81
2017-08-10T12:52:06.181Z,995.8
2017-08-10T12:53:16.287Z,995.74
2017-08-10T12:54:26.324Z,995.75
2017-08-10T12:55:36.686Z,995.75
2017-08-10T12:56:47.053Z,995.71
2017-08-10T12:57:57.104Z,995.68
2017-08-10T12:59:07.523Z,995.67
2017-08-10T13:00:17.578Z,995.66
2017-08-10T13:01:27.649Z,995.66
2017-08-10T13:02:37.988Z,995.68
2017-08-10T13:03:48.038Z,995.67
2017-08-10T13:04:58.460Z,995.65
2017-08-10T13:06:08.498Z,995.73
2017-08-10T13:07:18.878Z,995.73
2017-08-10T13:08:29.241Z,995.72
2017-08-10T13:09:39.581Z,995.73
2017-08-10T13:10:49.992Z,995.74
2017-08-10T13:12:00.344Z,995.75
2017-08-10T13:13:10.912Z,995.72
2017-08-10T13:14:21.275Z,995.72
2017-08-10T13:15:31.327Z,995.75
2017-08-10T13:16:41.733Z,995.79
2017-08-10T13:17:52.104Z,995.85
2017-08-10T13:19:02.160Z,995.9
2017-08-10T13:20:12.609Z,995.96
2017-08-10T13:21:22.978Z,996.1
2017-08-10T13:22:33.092Z,996.18
2017-08-10T13:23:43.450Z,996.18
2017-08-10T13:24:53.841Z,996.15
2017-08-10T13:26:03.881Z,996.12
2017-08-10T13:27:14.230Z,996.05
2017-08-10T13:28:24.317Z,995.95
2017-08-10T13:29:34.694Z,995.92
2017-08-10T13:30:45.057Z,995.99
2017-08-10T13:31:55.105Z,996.09
2017-08-10T13:33:05.463Z,996.12
2017-08-10T13:34:15.246Z,996.19
2017-08-10T13:35:25.614Z,996.12
2017-08-10T13:36:35.986Z,996.04
2017-08-10T13:37:46.372Z,996.03
2017-08-10T13:38:56.731Z,996.01
2017-08-10T13:40:07.150Z,995.99
2017-08-10T13:41:17.521Z,995.98
2017-08-10T13:42:27.878Z,996.01
2017-08-10T13:43:38.239Z,996.09
2017-08-10T13:44:49.954Z,996.2
2017-08-10T13:46:00.371Z,996.36
2017-08-10T13:47:10.748Z,996.51
2017-08-10T13:48:21.111Z,996.58
2017-08-10T13:49:31.476Z,996.68
2017-08-10T13:50:41.841Z,996.76
2017-08-10T13:51:52.257Z,996.82
2017-08-10T13:53:02.633Z,996.87
2017-08-10T13:54:13.097Z,996.88
2017-08-10T13:55:23.126Z,996.94
2017-08-10T13:56:33.173Z,997.02
2017-08-10T13:57:42.952Z,997.13
2017-08-10T13:58:53.307Z,997.3
2017-08-10T14:00:03.698Z,997.42
2017-08-10T14:01:14.052Z,997.61
2017-08-10T14:02:24.421Z,997.8
2017-08-10T14:03:33.907Z,998.14
2017-08-10T14:04:43.943Z,998.83
2017-08-10T14:05:54.318Z,998.81
2017-08-10T14:07:04.682Z,998.84
2017-08-10T14:08:14.744Z,998.95
2017-08-10T14:09:25.146Z,999.18
2017-08-10T14:10:35.188Z,999.35
2017-08-10T14:11:45.551Z,999.62
2017-08-10T14:12:55.618Z,999.51
2017-08-10T14:14:05.987Z,999.36
2017-08-10T14:15:16.408Z,999.46
2017-08-10T14:16:26.796Z,999.24
2017-08-10T14:17:36.833Z,999.21
2017-08-10T14:18:47.303Z,998.98
2017-08-10T14:19:57.033Z,998.78
2017-08-10T14:21:07.444Z,998.65
2017-08-10T14:22:17.492Z,998.37
2017-08-10T14:23:27.894Z,998.14
2017-08-10T14:24:38.274Z,997.92
2017-08-10T14:25:48.646Z,997.8
2017-08-10T14:26:59.052Z,997.79
2017-08-10T14:28:09.412Z,997.71
2017-08-10T14:29:19.446Z,997.62
2017-08-10T14:30:29.490Z,997.66
2017-08-10T14:31:39.872Z,997.62
2017-08-10T14:32:50.279Z,997.46
2017-08-10T14:34:00.640Z,997.26
2017-08-10T14:35:12.185Z,997.03
2017-08-10T14:36:22.551Z,996.81
2017-08-10T14:37:32.925Z,996.67
2017-08-10T14:38:43.362Z,996.51
2017-08-10T14:39:53.760Z,996.3
2017-08-10T14:41:04.133Z,996.11
2017-08-10T14:42:14.497Z,995.89
2017-08-10T14:43:24.853Z,995.78
2017-08-10T14:44:35.256Z,995.99
2017-08-10T14:45:45.628Z,996.16
2017-08-10T14:46:55.690Z,996.29
2017-08-10T14:48:06.052Z,996.33
2017-08-10T14:49:16.393Z,996.33
2017-08-10T14:50:26.502Z,996.29
2017-08-10T14:51:36.856Z,996.31
2017-08-10T14:52:46.902Z,996.4
2017-08-10T14:53:56.952Z,996.57
2017-08-10T14:55:07.317Z,996.64
2017-08-10T14:56:17.719Z,996.69
2017-08-10T14:57:28.076Z,996.67
2017-08-10T14:58:38.455Z,996.64
2017-08-10T14:59:48.497Z,996.53
2017-08-10T15:00:58.245Z,996.55
2017-08-10T15:02:08.654Z,996.53
2017-08-10T15:03:18.997Z,996.59
2017-08-10T15:04:29.046Z,996.63
2017-08-10T15:05:39.093Z,996.73
2017-08-10T15:06:49.445Z,996.74
2017-08-10T15:07:59.866Z,996.77
2017-08-10T15:09:09.922Z,996.69
2017-08-10T15:10:20.298Z,996.71
2017-08-10T15:11:30.449Z,996.68